Time;durP1;ratioP1;P1;durP2;ratioP2;P2;SDS_P1;SDS_P2;PMS_P1;PMS_P2;Temp;Humidity;BMP_temperature;BMP_pressure;BME280_temperature;BME280_humidity;BME280_pressure;Samples;Min_cycle;Max_cycle;Signal;HPM_P1;HPM_P2
2024/03/12 00:01:10;;;;;;;1.15;1.05;;;;;;;;;;5076872;28;20051;-57
2024/03/12 00:03:42;;;;;;;1.75;1.17;;;;;;;;;;5068595;28;20071;-57
2024/03/12 00:06:13;;;;;;;1.63;0.93;;;;;;;;;;5083335;28;20102;-59
2024/03/12 00:08:42;;;;;;;1.95;1.35;;;;;;;;;;5061832;28;20132;-59
2024/03/12 00:11:11;;;;;;;1.48;1.30;;;;;;;;;;5073513;28;20040;-57
2024/03/12 00:13:39;;;;;;;1.95;1.00;;;;;;;;;;5070305;28;20056;-56
2024/03/12 00:16:08;;;;;;;1.42;1.00;;;;;;;;;;5066071;28;20079;-58
2024/03/12 00:18:37;;;;;;;3.28;1.20;;;;;;;;;;5072447;28;20135;-58
2024/03/12 00:21:07;;;;;;;1.75;1.17;;;;;;;;;;5077010;28;20044;-58
2024/03/12 00:23:37;;;;;;;2.55;1.00;;;;;;;;;;5071399;28;20045;-58
2024/03/12 00:26:05;;;;;;;1.17;1.00;;;;;;;;;;5085607;28;20177;-57
2024/03/12 00:28:34;;;;;;;1.60;1.17;;;;;;;;;;5074038;28;20413;-59
2024/03/12 00:31:05;;;;;;;0.98;0.90;;;;;;;;;;5081100;28;20212;-58
2024/03/12 00:33:33;;;;;;;1.05;1.00;;;;;;;;;;5060169;28;20405;-57
2024/03/12 00:36:02;;;;;;;0.70;0.70;;;;;;;;;;5070787;28;20048;-57
2024/03/12 00:38:31;;;;;;;1.10;1.00;;;;;;;;;;5072097;28;20044;-57
2024/03/12 00:41:01;;;;;;;1.10;1.00;;;;;;;;;;5053214;28;20059;-59
2024/03/12 00:43:32;;;;;;;1.55;1.02;;;;;;;;;;5050518;28;20257;-58
2024/03/12 00:46:01;;;;;;;1.10;1.00;;;;;;;;;;5050409;28;20072;-59
2024/03/12 00:48:30;;;;;;;2.05;0.90;;;;;;;;;;5047312;28;20045;-57
2024/03/12 00:50:58;;;;;;;0.85;0.82;;;;;;;;;;5076190;28;20049;-57
2024/03/12 00:53:26;;;;;;;1.75;1.20;;;;;;;;;;5067122;28;20121;-58
2024/03/12 00:55:55;;;;;;;1.23;1.00;;;;;;;;;;5065191;28;20094;-58
2024/03/12 00:58:24;;;;;;;1.45;0.90;;;;;;;;;;5069762;28;20085;-58
2024/03/12 01:00:53;;;;;;;1.23;1.13;;;;;;;;;;5069878;28;20045;-57
2024/03/12 01:03:23;;;;;;;2.63;1.80;;;;;;;;;;5068933;28;20044;-57
2024/03/12 01:05:53;;;;;;;3.00;1.05;;;;;;;;;;5074479;28;20048;-60
2024/03/12 01:08:22;;;;;;;1.70;1.17;;;;;;;;;;5067613;28;20048;-58
2024/03/12 01:10:51;;;;;;;1.10;1.00;;;;;;;;;;5074060;28;20044;-58
2024/03/12 01:13:20;;;;;;;1.45;1.10;;;;;;;;;;5069596;28;20582;-57
2024/03/12 01:15:52;;;;;;;1.65;1.10;;;;;;;;;;5068975;28;20505;-58
2024/03/12 01:18:21;;;;;;;3.45;1.73;;;;;;;;;;5067343;28;20079;-60
2024/03/12 01:20:50;;;;;;;2.22;1.30;;;;;;;;;;5070140;28;20468;-58
2024/03/12 01:23:18;;;;;;;1.30;1.20;;;;;;;;;;5065451;28;20052;-58
2024/03/12 01:25:47;;;;;;;1.35;1.25;;;;;;;;;;5082517;28;20477;-58
2024/03/12 01:28:15;;;;;;;1.92;1.20;;;;;;;;;;5063106;28;20132;-60
2024/03/12 01:30:44;;;;;;;1.10;1.00;;;;;;;;;;5057837;28;20051;-59
2024/03/12 01:33:13;;;;;;;1.77;1.20;;;;;;;;;;5075321;28;20063;-59
2024/03/12 01:35:44;;;;;;;1.52;1.15;;;;;;;;;;5065380;28;20041;-58
2024/03/12 01:38:15;;;;;;;1.98;1.23;;;;;;;;;;5067443;28;20399;-57
2024/03/12 01:40:43;;;;;;;1.13;1.00;;;;;;;;;;5073572;28;20987;-58
2024/03/12 01:43:12;;;;;;;1.40;1.10;;;;;;;;;;5081637;28;20060;-58
2024/03/12 01:45:43;;;;;;;1.65;1.20;;;;;;;;;;5056045;28;20080;-58
2024/03/12 01:48:11;;;;;;;1.75;1.00;;;;;;;;;;5069208;28;20420;-58
2024/03/12 01:50:42;;;;;;;1.17;0.95;;;;;;;;;;5060789;28;20049;-58
2024/03/12 01:53:10;;;;;;;2.25;1.10;;;;;;;;;;5068889;28;20096;-57
2024/03/12 01:55:42;;;;;;;1.80;1.00;;;;;;;;;;5056118;28;20053;-59
2024/03/12 01:58:14;;;;;;;2.85;1.30;;;;;;;;;;5073203;28;20055;-59
2024/03/12 02:00:43;;;;;;;1.25;1.15;;;;;;;;;;5065696;28;20052;-58
2024/03/12 02:03:12;;;;;;;1.25;1.10;;;;;;;;;;5064279;28;20532;-57
2024/03/12 02:05:42;;;;;;;1.80;1.15;;;;;;;;;;5067303;28;20044;-58
2024/03/12 02:08:12;;;;;;;1.85;1.08;;;;;;;;;;5070056;28;20185;-58
2024/03/12 02:10:40;;;;;;;1.20;1.05;;;;;;;;;;5071534;28;20088;-59
2024/03/12 02:13:09;;;;;;;1.73;1.00;;;;;;;;;;5068891;28;20521;-59
2024/03/12 02:15:38;;;;;;;1.48;1.00;;;;;;;;;;5070011;28;20040;-58
2024/03/12 02:18:08;;;;;;;1.10;0.90;;;;;;;;;;5081967;28;20044;-58
2024/03/12 02:20:37;;;;;;;1.60;1.10;;;;;;;;;;5059104;28;20052;-60
2024/03/12 02:23:07;;;;;;;1.23;1.13;;;;;;;;;;5072314;28;20148;-59
2024/03/12 02:25:37;;;;;;;1.52;1.10;;;;;;;;;;5063142;28;20101;-58
2024/03/12 02:28:06;;;;;;;2.38;1.13;;;;;;;;;;5073893;28;20095;-61
2024/03/12 02:30:34;;;;;;;2.38;0.93;;;;;;;;;;5060841;28;20059;-58
2024/03/12 02:33:03;;;;;;;1.67;0.98;;;;;;;;;;5068300;28;20045;-58
2024/03/12 02:35:34;;;;;;;1.33;1.08;;;;;;;;;;5070428;28;20048;-59
2024/03/12 02:38:03;;;;;;;1.30;1.15;;;;;;;;;;5071906;28;20064;-57
2024/03/12 02:40:31;;;;;;;1.85;1.00;;;;;;;;;;5058821;28;20131;-57
2024/03/12 02:43:01;;;;;;;1.73;1.23;;;;;;;;;;5069560;28;20079;-58
2024/03/12 02:45:29;;;;;;;1.25;1.00;;;;;;;;;;5077758;28;20044;-56
2024/03/12 02:47:58;;;;;;;1.13;1.00;;;;;;;;;;5079684;28;20048;-59
2024/03/12 02:50:27;;;;;;;1.88;1.30;;;;;;;;;;5070017;28;20351;-58
2024/03/12 02:52:56;;;;;;;2.45;1.13;;;;;;;;;;5077227;28;20106;-56
2024/03/12 02:55:24;;;;;;;1.10;1.00;;;;;;;;;;5067586;28;20481;-57
2024/03/12 02:57:53;;;;;;;1.70;1.20;;;;;;;;;;5065472;28;20098;-58
2024/03/12 03:00:22;;;;;;;4.40;1.38;;;;;;;;;;5070505;28;20099;-59
2024/03/12 03:02:54;;;;;;;1.27;1.17;;;;;;;;;;5078292;28;20145;-59
2024/03/12 03:05:23;;;;;;;1.83;1.25;;;;;;;;;;5077459;28;20048;-59
2024/03/12 03:07:51;;;;;;;2.03;1.05;;;;;;;;;;5068775;28;20048;-58
2024/03/12 03:10:20;;;;;;;1.40;1.20;;;;;;;;;;5058405;28;20062;-58
2024/03/12 03:12:49;;;;;;;1.30;1.20;;;;;;;;;;5070100;28;20045;-57
2024/03/12 03:15:18;;;;;;;1.90;1.27;;;;;;;;;;5053323;28;20072;-59
2024/03/12 03:17:48;;;;;;;1.40;1.10;;;;;;;;;;5071036;28;20050;-57
2024/03/12 03:20:17;;;;;;;2.50;1.17;;;;;;;;;;5065494;28;20044;-58
2024/03/12 03:22:46;;;;;;;2.33;1.30;;;;;;;;;;5069661;28;20130;-58
2024/03/12 03:25:14;;;;;;;1.50;1.30;;;;;;;;;;5063122;28;20040;-58
2024/03/12 03:27:43;;;;;;;2.13;1.20;;;;;;;;;;5066373;28;20056;-58
2024/03/12 03:30:17;;;;;;;1.27;1.17;;;;;;;;;;5059079;28;20768;-57
2024/03/12 03:32:48;;;;;;;1.75;1.40;;;;;;;;;;5068713;28;20052;-57
2024/03/12 03:35:17;;;;;;;2.13;1.40;;;;;;;;;;5059733;28;20416;-57
2024/03/12 03:37:47;;;;;;;3.20;1.38;;;;;;;;;;5054330;28;20048;-58
2024/03/12 03:40:22;;;;;;;1.65;1.30;;;;;;;;;;5064873;28;20048;-58
2024/03/12 03:42:55;;;;;;;2.08;1.70;;;;;;;;;;5067752;28;20096;-57
2024/03/12 03:45:24;;;;;;;1.25;1.10;;;;;;;;;;5053129;28;20084;-59
2024/03/12 03:47:54;;;;;;;2.13;1.30;;;;;;;;;;5060705;28;20047;-58
2024/03/12 03:50:22;;;;;;;1.73;1.25;;;;;;;;;;5061278;28;20075;-57
2024/03/12 03:52:52;;;;;;;2.05;1.70;;;;;;;;;;5067550;28;20174;-57
2024/03/12 03:55:22;;;;;;;2.20;1.40;;;;;;;;;;5067874;28;20036;-56
2024/03/12 03:57:50;;;;;;;1.42;1.33;;;;;;;;;;5068261;28;20044;-58
2024/03/12 04:00:23;;;;;;;2.20;1.38;;;;;;;;;;5061966;28;20045;-59
2024/03/12 04:02:53;;;;;;;1.92;1.60;;;;;;;;;;5072007;28;20044;-57
2024/03/12 04:05:22;;;;;;;2.42;1.35;;;;;;;;;;5076713;28;20048;-56
2024/03/12 04:07:50;;;;;;;1.40;1.30;;;;;;;;;;5061535;28;20547;-57
2024/03/12 04:10:19;;;;;;;1.33;1.20;;;;;;;;;;5064056;28;20041;-59
2024/03/12 04:12:48;;;;;;;2.38;1.33;;;;;;;;;;5066344;28;20036;-58
2024/03/12 04:15:18;;;;;;;3.50;1.30;;;;;;;;;;5068228;28;20103;-57
2024/03/12 04:17:46;;;;;;;1.67;1.20;;;;;;;;;;5074053;28;20072;-58
2024/03/12 04:20:16;;;;;;;1.42;1.33;;;;;;;;;;5065238;28;20052;-57
2024/03/12 04:22:46;;;;;;;3.45;1.60;;;;;;;;;;5051989;28;20556;-57
2024/03/12 04:25:15;;;;;;;2.75;1.42;;;;;;;;;;5066629;28;20090;-58
2024/03/12 04:27:44;;;;;;;1.23;1.10;;;;;;;;;;5075076;28;20086;-58
2024/03/12 04:30:13;;;;;;;1.48;1.35;;;;;;;;;;5070551;28;20052;-58
2024/03/12 04:32:42;;;;;;;1.73;1.40;;;;;;;;;;5065971;28;20087;-57
2024/03/12 04:35:12;;;;;;;1.88;1.50;;;;;;;;;;5069450;28;20048;-56
2024/03/12 04:37:44;;;;;;;1.80;1.27;;;;;;;;;;5065974;28;20487;-57
2024/03/12 04:40:12;;;;;;;3.38;1.88;;;;;;;;;;5066219;28;20056;-57
2024/03/12 04:42:45;;;;;;;3.15;1.50;;;;;;;;;;5065243;28;20048;-57
2024/03/12 04:45:14;;;;;;;2.05;1.55;;;;;;;;;;5061505;28;20502;-57
2024/03/12 04:47:42;;;;;;;1.67;1.35;;;;;;;;;;5062745;28;20068;-61
2024/03/12 04:50:13;;;;;;;1.30;1.20;;;;;;;;;;5065792;28;20066;-58
2024/03/12 04:52:44;;;;;;;1.45;1.33;;;;;;;;;;5071502;28;20131;-57
2024/03/12 04:55:14;;;;;;;2.13;1.40;;;;;;;;;;5080952;28;20531;-57
2024/03/12 04:57:43;;;;;;;1.90;1.52;;;;;;;;;;5070182;28;20056;-58
2024/03/12 05:00:14;;;;;;;4.38;1.40;;;;;;;;;;5060383;28;20504;-56
2024/03/12 05:02:44;;;;;;;1.42;1.23;;;;;;;;;;5073527;28;20134;-58
2024/03/12 05:05:17;;;;;;;1.65;1.40;;;;;;;;;;5074021;28;20040;-56
2024/03/12 05:07:48;;;;;;;1.45;1.33;;;;;;;;;;5080108;28;20047;-58
2024/03/12 05:10:16;;;;;;;1.83;1.70;;;;;;;;;;5057516;28;20052;-57
2024/03/12 05:12:45;;;;;;;1.60;1.50;;;;;;;;;;5070438;28;20099;-57
2024/03/12 05:15:14;;;;;;;2.47;1.50;;;;;;;;;;5068402;28;20053;-58
2024/03/12 05:17:45;;;;;;;1.77;1.45;;;;;;;;;;5083329;28;20068;-57
2024/03/12 05:20:17;;;;;;;1.55;1.35;;;;;;;;;;5070108;28;20102;-60
2024/03/12 05:22:45;;;;;;;3.20;1.80;;;;;;;;;;5069032;28;20493;-58
2024/03/12 05:25:22;;;;;;;1.67;1.38;;;;;;;;;;5072265;28;20079;-61
2024/03/12 05:27:51;;;;;;;1.40;1.27;;;;;;;;;;5068449;28;20052;-56
2024/03/12 05:30:22;;;;;;;2.92;1.48;;;;;;;;;;5075706;28;20048;-57
2024/03/12 05:32:53;;;;;;;3.40;1.73;;;;;;;;;;5069421;28;20056;-58
2024/03/12 05:35:22;;;;;;;1.88;1.45;;;;;;;;;;5068514;28;20065;-58
2024/03/12 05:38:02;;;;;;;2.80;1.60;;;;;;;;;;5065719;28;20449;-57
2024/03/12 05:40:46;;;;;;;1.48;1.35;;;;;;;;;;5060809;28;20056;-57
2024/03/12 05:48:52;;;;;;;2.33;1.40;;;;;;;;;;5009336;28;20054;-58
2024/03/12 05:51:21;;;;;;;2.08;1.60;;;;;;;;;;5067696;28;20047;-58
2024/03/12 05:53:50;;;;;;;2.10;1.55;;;;;;;;;;5067737;28;20051;-59
2024/03/12 05:56:20;;;;;;;3.00;1.60;;;;;;;;;;5064048;28;20040;-58
2024/03/12 05:58:48;;;;;;;2.28;1.55;;;;;;;;;;5069244;28;20049;-58
2024/03/12 06:01:17;;;;;;;2.25;1.50;;;;;;;;;;5066748;28;20043;-58
2024/03/12 06:03:46;;;;;;;1.73;1.60;;;;;;;;;;5067472;28;20098;-59
2024/03/12 06:06:14;;;;;;;2.13;1.80;;;;;;;;;;5066932;28;20052;-61
2024/03/12 06:08:44;;;;;;;1.77;1.40;;;;;;;;;;5061245;28;20115;-59
2024/03/12 06:11:13;;;;;;;2.63;1.60;;;;;;;;;;5068059;28;20044;-59
2024/03/12 06:13:44;;;;;;;2.22;2.03;;;;;;;;;;5062280;28;20047;-58
2024/03/12 06:16:12;;;;;;;3.22;1.80;;;;;;;;;;5065235;28;20048;-58
2024/03/12 06:18:41;;;;;;;4.93;1.98;;;;;;;;;;5064438;28;20530;-60
2024/03/12 06:21:09;;;;;;;2.78;1.80;;;;;;;;;;5071006;28;20102;-59
2024/03/12 06:23:37;;;;;;;4.00;2.00;;;;;;;;;;5067189;28;20044;-59
2024/03/12 06:26:07;;;;;;;2.65;2.10;;;;;;;;;;5068952;28;20060;-57
2024/03/12 06:28:36;;;;;;;2.72;2.35;;;;;;;;;;5081885;28;20106;-57
2024/03/12 06:31:05;;;;;;;3.08;2.15;;;;;;;;;;5080433;28;20055;-60
2024/03/12 06:33:34;;;;;;;2.80;2.00;;;;;;;;;;5078098;28;20120;-59
2024/03/12 06:36:03;;;;;;;3.28;1.85;;;;;;;;;;5078963;28;20048;-58
2024/03/12 06:38:32;;;;;;;2.20;2.00;;;;;;;;;;5075589;28;20040;-57
2024/03/12 06:41:02;;;;;;;2.40;2.08;;;;;;;;;;5077449;28;20055;-59
2024/03/12 06:43:31;;;;;;;2.22;2.00;;;;;;;;;;5070850;28;20079;-58
2024/03/12 06:45:59;;;;;;;2.22;2.03;;;;;;;;;;5070892;28;20040;-57
2024/03/12 06:48:29;;;;;;;2.00;1.80;;;;;;;;;;5078390;28;20053;-57
2024/03/12 06:50:58;;;;;;;2.42;2.10;;;;;;;;;;5076137;28;20045;-56
2024/03/12 06:53:27;;;;;;;2.40;2.00;;;;;;;;;;5072841;28;20106;-59
2024/03/12 06:55:57;;;;;;;3.13;1.58;;;;;;;;;;5060244;28;20052;-58
2024/03/12 06:58:27;;;;;;;2.03;1.70;;;;;;;;;;5068717;28;20039;-56
2024/03/12 07:00:57;;;;;;;2.95;1.80;;;;;;;;;;5083717;28;20454;-56
2024/03/12 07:03:28;;;;;;;2.65;1.88;;;;;;;;;;5074367;28;20386;-57
2024/03/12 07:05:58;;;;;;;1.77;1.67;;;;;;;;;;5079551;28;20044;-56
2024/03/12 07:08:26;;;;;;;3.33;1.80;;;;;;;;;;5076726;28;20494;-57
2024/03/12 07:10:55;;;;;;;2.40;1.73;;;;;;;;;;5077352;28;20044;-57
2024/03/12 07:13:26;;;;;;;2.08;1.60;;;;;;;;;;5062378;28;20044;-57
2024/03/12 07:15:54;;;;;;;2.03;1.65;;;;;;;;;;5087713;28;20544;-56
2024/03/12 07:18:23;;;;;;;2.08;1.45;;;;;;;;;;5086345;28;20127;-56
2024/03/12 07:20:54;;;;;;;3.25;2.03;;;;;;;;;;5068379;28;21296;-57
2024/03/12 07:23:25;;;;;;;2.47;1.65;;;;;;;;;;5081330;28;20048;-60
2024/03/12 07:25:55;;;;;;;2.78;1.80;;;;;;;;;;5085178;28;20055;-58
2024/03/12 07:28:26;;;;;;;1.58;1.40;;;;;;;;;;5065217;28;20041;-57
2024/03/12 07:30:55;;;;;;;2.83;1.73;;;;;;;;;;5059260;28;20036;-57
2024/03/12 07:33:24;;;;;;;2.00;1.60;;;;;;;;;;5082856;28;20036;-57
2024/03/12 07:35:53;;;;;;;2.28;1.65;;;;;;;;;;5078334;28;20381;-58
2024/03/12 07:38:22;;;;;;;4.45;1.73;;;;;;;;;;5072296;28;20090;-57
2024/03/12 07:40:52;;;;;;;2.40;1.25;;;;;;;;;;5071957;28;20052;-58
2024/03/12 07:43:20;;;;;;;1.48;1.30;;;;;;;;;;5073400;28;20044;-58
2024/03/12 07:45:49;;;;;;;2.50;1.67;;;;;;;;;;5088120;28;20084;-57
2024/03/12 07:48:22;;;;;;;3.03;1.77;;;;;;;;;;5084654;28;20059;-57
2024/03/12 07:50:50;;;;;;;1.60;1.50;;;;;;;;;;5074859;28;20497;-57
2024/03/12 07:53:20;;;;;;;3.42;1.85;;;;;;;;;;5079986;28;20036;-56
2024/03/12 07:55:52;;;;;;;6.40;1.60;;;;;;;;;;5061945;28;20072;-59
2024/03/12 07:58:23;;;;;;;1.55;1.38;;;;;;;;;;5063438;28;20052;-58
2024/03/12 08:00:51;;;;;;;1.60;1.25;;;;;;;;;;5070045;28;20041;-58
2024/03/12 08:03:19;;;;;;;1.98;1.35;;;;;;;;;;5071210;28;20508;-60
2024/03/12 08:05:48;;;;;;;1.98;1.42;;;;;;;;;;5069637;28;20044;-57
2024/03/12 08:08:17;;;;;;;5.22;1.55;;;;;;;;;;5063084;28;20109;-60
2024/03/12 08:10:45;;;;;;;2.53;1.40;;;;;;;;;;5066820;28;20044;-59
2024/03/12 08:13:14;;;;;;;1.25;1.10;;;;;;;;;;5064811;28;20048;-60
2024/03/12 08:15:45;;;;;;;1.48;1.10;;;;;;;;;;5068558;28;20123;-59
2024/03/12 08:18:14;;;;;;;1.83;1.33;;;;;;;;;;5067787;28;20041;-59
2024/03/12 08:20:49;;;;;;;2.58;1.25;;;;;;;;;;5066201;28;20040;-58
2024/03/12 08:23:19;;;;;;;1.83;1.17;;;;;;;;;;5067502;28;20044;-61
2024/03/12 08:25:48;;;;;;;1.98;1.50;;;;;;;;;;5071979;28;20489;-58
2024/03/12 08:28:27;;;;;;;1.10;0.90;;;;;;;;;;5069908;28;21761;-59
2024/03/12 08:30:57;;;;;;;3.72;1.13;;;;;;;;;;5068464;28;20052;-58
2024/03/12 08:33:35;;;;;;;1.95;1.35;;;;;;;;;;5070946;28;20052;-58
2024/03/12 08:36:04;;;;;;;1.05;0.90;;;;;;;;;;5071647;28;20561;-59
2024/03/12 08:38:33;;;;;;;1.85;1.10;;;;;;;;;;5063617;28;20047;-58
2024/03/12 08:41:01;;;;;;;2.60;1.23;;;;;;;;;;5071742;28;20055;-58
2024/03/12 08:43:29;;;;;;;1.42;1.10;;;;;;;;;;5063285;28;20505;-60
2024/03/12 08:46:01;;;;;;;1.38;1.13;;;;;;;;;;5071000;28;20048;-59
2024/03/12 08:48:29;;;;;;;4.88;1.40;;;;;;;;;;5070409;28;20048;-59
2024/03/12 08:50:58;;;;;;;1.60;1.23;;;;;;;;;;5080402;28;20048;-59
2024/03/12 08:53:26;;;;;;;1.95;1.02;;;;;;;;;;5077994;28;20040;-58
2024/03/12 08:55:57;;;;;;;2.65;1.25;;;;;;;;;;5075000;28;20048;-60
2024/03/12 08:58:25;;;;;;;1.63;1.10;;;;;;;;;;5071504;28;20367;-58
2024/03/12 09:00:55;;;;;;;2.80;1.10;;;;;;;;;;5073615;28;20044;-59
2024/03/12 09:03:25;;;;;;;1.52;1.20;;;;;;;;;;5070951;28;20102;-58
2024/03/12 09:05:53;;;;;;;2.47;1.23;;;;;;;;;;5088825;28;20051;-59
2024/03/12 09:08:24;;;;;;;2.13;1.38;;;;;;;;;;5068203;28;20497;-59
2024/03/12 09:10:53;;;;;;;1.45;1.10;;;;;;;;;;5075026;28;20061;-59
2024/03/12 09:13:21;;;;;;;1.75;1.17;;;;;;;;;;5065896;28;20052;-60
2024/03/12 09:15:51;;;;;;;1.88;1.20;;;;;;;;;;5069923;28;20102;-58
2024/03/12 09:18:20;;;;;;;2.28;1.10;;;;;;;;;;5069934;28;20452;-58
2024/03/12 09:20:56;;;;;;;1.13;0.90;;;;;;;;;;5074213;28;20748;-62
2024/03/12 09:23:28;;;;;;;1.33;1.10;;;;;;;;;;5082615;28;20059;-60
2024/03/12 09:25:57;;;;;;;2.33;1.40;;;;;;;;;;5069869;28;20058;-60
2024/03/12 09:28:27;;;;;;;1.92;1.13;;;;;;;;;;5069910;28;20375;-58
2024/03/12 09:30:55;;;;;;;2.85;1.35;;;;;;;;;;5074982;28;20517;-58
2024/03/12 09:33:25;;;;;;;1.50;1.10;;;;;;;;;;5071231;28;20138;-59
2024/03/12 09:35:54;;;;;;;1.45;1.35;;;;;;;;;;5086242;28;20405;-60
2024/03/12 09:38:24;;;;;;;1.88;1.20;;;;;;;;;;5080117;28;20044;-59
2024/03/12 09:40:54;;;;;;;1.52;1.20;;;;;;;;;;5074678;28;20044;-56
2024/03/12 09:43:24;;;;;;;1.73;1.10;;;;;;;;;;5077977;28;20097;-56
2024/03/12 09:45:52;;;;;;;1.75;1.20;;;;;;;;;;5081626;28;20044;-58
2024/03/12 09:48:21;;;;;;;3.95;1.17;;;;;;;;;;5069484;28;20040;-57
2024/03/12 09:50:50;;;;;;;1.58;1.20;;;;;;;;;;5072513;28;20045;-56
2024/03/12 09:53:19;;;;;;;2.10;1.30;;;;;;;;;;5072646;28;20145;-55
2024/03/12 09:55:49;;;;;;;1.90;1.30;;;;;;;;;;5070638;28;20041;-59
2024/03/12 09:58:18;;;;;;;1.60;1.30;;;;;;;;;;5066095;28;20047;-57
2024/03/12 10:00:47;;;;;;;2.25;1.13;;;;;;;;;;5069706;28;20052;-58
2024/03/12 10:03:18;;;;;;;2.15;1.30;;;;;;;;;;5069265;28;20357;-56
2024/03/12 10:05:46;;;;;;;5.05;1.10;;;;;;;;;;5070737;28;20072;-56
2024/03/12 10:08:16;;;;;;;2.35;1.20;;;;;;;;;;5067433;28;20101;-57
2024/03/12 10:10:46;;;;;;;1.50;1.00;;;;;;;;;;5063076;28;20521;-57
2024/03/12 10:13:17;;;;;;;2.78;1.10;;;;;;;;;;5061253;28;20049;-57
2024/03/12 10:15:51;;;;;;;3.00;1.10;;;;;;;;;;5070468;28;20098;-56
2024/03/12 10:18:20;;;;;;;2.30;1.10;;;;;;;;;;5065527;28;20053;-56
2024/03/12 10:20:50;;;;;;;1.45;1.00;;;;;;;;;;5042293;28;20187;-60
2024/03/12 10:23:20;;;;;;;1.88;1.02;;;;;;;;;;5043079;28;20049;-59
2024/03/12 10:25:49;;;;;;;4.20;1.00;;;;;;;;;;5041111;28;20057;-59
2024/03/12 10:28:24;;;;;;;4.50;1.20;;;;;;;;;;5047391;28;20044;-59
2024/03/12 10:30:53;;;;;;;1.20;1.10;;;;;;;;;;5038418;28;20042;-58
2024/03/12 10:33:22;;;;;;;1.15;0.85;;;;;;;;;;5048846;28;20044;-59
2024/03/12 10:35:51;;;;;;;2.75;1.30;;;;;;;;;;5049107;28;20060;-60
2024/03/12 10:38:26;;;;;;;1.70;1.23;;;;;;;;;;5051322;28;20053;-60
2024/03/12 10:40:56;;;;;;;1.13;1.02;;;;;;;;;;5068277;28;20141;-56
2024/03/12 10:43:26;;;;;;;3.35;1.10;;;;;;;;;;5062426;28;20124;-58
2024/03/12 10:45:55;;;;;;;1.30;1.10;;;;;;;;;;5068496;28;20495;-56
2024/03/12 10:48:25;;;;;;;1.23;1.13;;;;;;;;;;5062433;28;20140;-57
2024/03/12 10:50:56;;;;;;;1.23;1.05;;;;;;;;;;5062580;28;20036;-56
2024/03/12 10:53:26;;;;;;;2.45;1.23;;;;;;;;;;5075815;28;20070;-56
2024/03/12 10:55:57;;;;;;;0.93;0.90;;;;;;;;;;5073937;28;20134;-57
2024/03/12 10:58:28;;;;;;;4.68;1.13;;;;;;;;;;5073166;28;20144;-56
2024/03/12 11:00:57;;;;;;;1.13;1.02;;;;;;;;;;5077932;28;20366;-58
2024/03/12 11:03:25;;;;;;;1.10;1.00;;;;;;;;;;5073415;28;20052;-56
2024/03/12 11:05:55;;;;;;;1.30;1.20;;;;;;;;;;5070213;28;20059;-56
2024/03/12 11:08:24;;;;;;;1.42;1.15;;;;;;;;;;5064708;28;20040;-58
2024/03/12 11:10:53;;;;;;;1.30;1.20;;;;;;;;;;5066419;28;20045;-59
2024/03/12 11:13:22;;;;;;;2.55;1.20;;;;;;;;;;5063663;28;20128;-58
2024/03/12 11:15:52;;;;;;;1.10;1.00;;;;;;;;;;5069124;28;20060;-57
2024/03/12 11:18:34;;;;;;;1.88;0.80;;;;;;;;;;5067615;28;20129;-56
2024/03/12 11:21:03;;;;;;;1.48;0.80;;;;;;;;;;5062600;28;20127;-60
2024/03/12 11:23:32;;;;;;;1.08;0.90;;;;;;;;;;5063030;28;20040;-59
2024/03/12 11:26:04;;;;;;;2.63;0.98;;;;;;;;;;5066298;28;20052;-59
2024/03/12 11:28:33;;;;;;;1.25;1.05;;;;;;;;;;5058175;28;20093;-61
2024/03/12 11:31:04;;;;;;;1.20;0.90;;;;;;;;;;5059967;28;20076;-59
2024/03/12 11:33:42;;;;;;;1.38;1.00;;;;;;;;;;5066957;28;20056;-60
2024/03/12 11:36:11;;;;;;;1.02;0.88;;;;;;;;;;5064067;28;20079;-61
2024/03/12 11:38:40;;;;;;;1.00;0.82;;;;;;;;;;5066450;28;20045;-57
2024/03/12 11:41:09;;;;;;;0.80;0.80;;;;;;;;;;5063759;28;20048;-62
2024/03/12 11:43:39;;;;;;;0.80;0.80;;;;;;;;;;5066829;28;20103;-61
2024/03/12 11:46:09;;;;;;;2.25;0.95;;;;;;;;;;5067933;28;20127;-60
2024/03/12 11:48:39;;;;;;;1.15;1.05;;;;;;;;;;5060528;28;20107;-61
2024/03/12 11:51:11;;;;;;;1.83;1.73;;;;;;;;;;5067698;28;20037;-60
2024/03/12 11:53:41;;;;;;;2.13;1.00;;;;;;;;;;5075920;28;20056;-59
2024/03/12 11:56:18;;;;;;;2.05;1.50;;;;;;;;;;5066372;28;20127;-59
2024/03/12 11:58:51;;;;;;;1.15;0.90;;;;;;;;;;5064772;28;20135;-59
2024/03/12 12:01:28;;;;;;;1.58;1.17;;;;;;;;;;5071362;28;20040;-59
2024/03/12 12:03:59;;;;;;;2.08;1.17;;;;;;;;;;5067628;28;20040;-59
2024/03/12 12:06:27;;;;;;;1.23;1.00;;;;;;;;;;5071896;28;20041;-61
2024/03/12 12:08:56;;;;;;;1.80;0.98;;;;;;;;;;5072185;28;20101;-59
2024/03/12 12:11:29;;;;;;;1.02;0.93;;;;;;;;;;5073091;28;20179;-59
2024/03/12 12:13:58;;;;;;;1.27;1.00;;;;;;;;;;5081771;28;20076;-59
2024/03/12 12:16:31;;;;;;;7.35;1.85;;;;;;;;;;5067753;28;20045;-59
2024/03/12 12:19:05;;;;;;;1.27;1.17;;;;;;;;;;5066232;28;20459;-58
2024/03/12 12:21:35;;;;;;;2.97;1.00;;;;;;;;;;5072369;28;20049;-60
2024/03/12 12:24:03;;;;;;;0.88;0.82;;;;;;;;;;5073239;28;20121;-59
2024/03/12 12:26:33;;;;;;;1.45;0.90;;;;;;;;;;5068451;28;20486;-61
2024/03/12 12:29:04;;;;;;;1.23;1.00;;;;;;;;;;5072467;28;20202;-59
2024/03/12 12:31:35;;;;;;;1.15;0.70;;;;;;;;;;5071692;28;20044;-62
2024/03/12 12:34:05;;;;;;;1.30;0.95;;;;;;;;;;5070439;28;20048;-59
2024/03/12 12:36:38;;;;;;;0.80;0.80;;;;;;;;;;5069541;28;20073;-59
2024/03/12 12:39:09;;;;;;;0.70;0.70;;;;;;;;;;5076734;28;20051;-58
2024/03/12 12:41:42;;;;;;;1.10;1.00;;;;;;;;;;5067069;28;20052;-59
2024/03/12 12:44:15;;;;;;;1.08;0.98;;;;;;;;;;5066422;28;20037;-59
2024/03/12 12:46:48;;;;;;;0.88;0.80;;;;;;;;;;5068382;28;20044;-60
2024/03/12 12:49:17;;;;;;;1.00;0.88;;;;;;;;;;5071612;28;20449;-58
2024/03/12 12:51:47;;;;;;;1.33;0.80;;;;;;;;;;5070992;28;20071;-62
2024/03/12 12:54:17;;;;;;;1.20;0.73;;;;;;;;;;5070378;28;20052;-60
2024/03/12 12:56:49;;;;;;;1.17;0.90;;;;;;;;;;5057935;28;20065;-59
2024/03/12 12:59:19;;;;;;;0.80;0.65;;;;;;;;;;5069890;28;20040;-59
2024/03/12 13:01:50;;;;;;;0.70;0.70;;;;;;;;;;5072170;28;20060;-60
2024/03/12 13:04:19;;;;;;;0.80;0.80;;;;;;;;;;5068207;28;20052;-59
2024/03/12 13:06:48;;;;;;;1.42;0.70;;;;;;;;;;5071396;28;20489;-59
2024/03/12 13:09:28;;;;;;;0.95;0.70;;;;;;;;;;5069321;28;20059;-60
2024/03/12 13:11:57;;;;;;;0.95;0.80;;;;;;;;;;5065806;28;20041;-58
2024/03/12 13:14:26;;;;;;;0.60;0.60;;;;;;;;;;5067448;28;20049;-59
2024/03/12 13:16:58;;;;;;;0.70;0.70;;;;;;;;;;5069434;28;20056;-60
2024/03/12 13:19:27;;;;;;;2.08;0.68;;;;;;;;;;5065264;28;20074;-60
2024/03/12 13:21:58;;;;;;;1.02;0.80;;;;;;;;;;5057176;28;20136;-59
2024/03/12 13:24:29;;;;;;;1.40;0.77;;;;;;;;;;5054038;28;20071;-59
2024/03/12 13:26:58;;;;;;;2.53;0.77;;;;;;;;;;5052731;28;20037;-59
2024/03/12 13:29:28;;;;;;;1.50;0.68;;;;;;;;;;5061187;28;20132;-60
2024/03/12 13:31:58;;;;;;;2.70;1.00;;;;;;;;;;5071244;28;20124;-59
2024/03/12 13:34:27;;;;;;;1.33;0.90;;;;;;;;;;5062631;28;20462;-59
2024/03/12 13:36:56;;;;;;;0.70;0.70;;;;;;;;;;5057642;28;20041;-59
2024/03/12 13:39:24;;;;;;;0.60;0.60;;;;;;;;;;5064678;28;20451;-61
2024/03/12 13:41:54;;;;;;;0.70;0.60;;;;;;;;;;5063965;28;20052;-62
2024/03/12 13:44:22;;;;;;;0.90;0.80;;;;;;;;;;5065662;28;20613;-61
2024/03/12 13:46:51;;;;;;;0.70;0.70;;;;;;;;;;5062513;28;20170;-60
2024/03/12 13:49:25;;;;;;;0.80;0.70;;;;;;;;;;5070250;28;20052;-59
2024/03/12 13:51:54;;;;;;;0.98;0.70;;;;;;;;;;5068863;28;20052;-60
2024/03/12 13:54:22;;;;;;;0.80;0.80;;;;;;;;;;5069590;28;20048;-60
2024/03/12 13:56:51;;;;;;;0.90;0.80;;;;;;;;;;5065669;28;20405;-62
2024/03/12 13:59:19;;;;;;;0.90;0.80;;;;;;;;;;5069907;28;20050;-59
2024/03/12 14:01:48;;;;;;;0.98;0.85;;;;;;;;;;5070807;28;20059;-60
2024/03/12 14:04:17;;;;;;;0.90;0.80;;;;;;;;;;5070770;28;20139;-60
2024/03/12 14:06:47;;;;;;;2.25;0.80;;;;;;;;;;5061583;28;20127;-61
2024/03/12 14:09:17;;;;;;;1.30;1.00;;;;;;;;;;5069844;28;20051;-61
2024/03/12 14:11:45;;;;;;;1.73;0.80;;;;;;;;;;5069075;28;20040;-58
2024/03/12 14:14:15;;;;;;;0.70;0.70;;;;;;;;;;5070290;28;20058;-60
2024/03/12 14:16:44;;;;;;;0.98;0.88;;;;;;;;;;5072946;28;20067;-58
2024/03/12 14:19:12;;;;;;;1.23;0.90;;;;;;;;;;5069474;28;20060;-61
2024/03/12 14:21:41;;;;;;;1.48;1.20;;;;;;;;;;5078162;28;20139;-62
2024/03/12 14:24:11;;;;;;;0.85;0.82;;;;;;;;;;5084388;28;20525;-61
2024/03/12 14:26:39;;;;;;;0.90;0.82;;;;;;;;;;5074725;28;20056;-60
2024/03/12 14:29:10;;;;;;;1.90;0.90;;;;;;;;;;5070545;28;20447;-59
2024/03/12 14:31:39;;;;;;;1.45;0.98;;;;;;;;;;5052861;28;20045;-61
2024/03/12 14:34:09;;;;;;;1.10;1.00;;;;;;;;;;5060713;28;20056;-60
2024/03/12 14:36:37;;;;;;;1.70;1.08;;;;;;;;;;5047830;28;20581;-64
2024/03/12 14:39:07;;;;;;;1.20;1.05;;;;;;;;;;5042305;28;20052;-60
2024/03/12 14:41:37;;;;;;;2.88;1.13;;;;;;;;;;5042449;28;20052;-61
2024/03/12 14:44:07;;;;;;;2.85;1.35;;;;;;;;;;5066936;28;20048;-61
2024/03/12 14:46:36;;;;;;;1.58;0.82;;;;;;;;;;5049784;28;20502;-60
2024/03/12 14:49:05;;;;;;;1.13;0.98;;;;;;;;;;5051205;28;20063;-60
2024/03/12 14:51:34;;;;;;;1.80;1.30;;;;;;;;;;5050984;28;20049;-61
2024/03/12 14:54:02;;;;;;;2.40;1.75;;;;;;;;;;5047886;28;20041;-61
2024/03/12 14:56:30;;;;;;;2.88;2.00;;;;;;;;;;5047351;28;20118;-62
2024/03/12 14:59:01;;;;;;;2.40;1.60;;;;;;;;;;5057799;28;20114;-59
2024/03/12 15:01:29;;;;;;;2.72;1.52;;;;;;;;;;5057311;28;20478;-60
2024/03/12 15:03:58;;;;;;;2.42;1.45;;;;;;;;;;5050050;28;20436;-59